Arcola, Missouri
Current Conditions -  °F | °C
As of 10:32 PM on Wednesday 26 Nov 2014 (Local Time) from KSGF Reporting Station
Overcast Overcast  
Wind Chill: 22°   Ceiling: 3700
Heat Index: 33°   Visibility: 10mi
Dew Point: 24°   Wind: 17mph
Humidity: 70%   Direction: 320°NW
Pressure: 30.28"   Gusts: 31mph
Location:  37.55°N, 93.88°W
Report Text: KSGF 270432Z 32015G27KT 10SM SCT026 OVC037 01/M04 A3028 RMK AO2 PK WND 31027/0425 T00061044
Loading
Personal Weather Stations






























Interactive Weather Map New forecast layout! Learn more

10-Day Weather Forecast

Advertisements
Track Severe Weather on mobile